createdAt,value
2023-04-26T00:01:57.494Z,99565.47
2023-04-26T00:05:02.247Z,99565.28
2023-04-26T00:08:05.049Z,99566.91
2023-04-26T00:11:07.986Z,99572.13
2023-04-26T00:14:10.374Z,99577.78
2023-04-26T00:17:13.289Z,99569.72
2023-04-26T00:20:15.824Z,99569.50
2023-04-26T00:23:18.719Z,99565.91
2023-04-26T00:26:21.461Z,99576.38
2023-04-26T00:29:24.138Z,99582.03
2023-04-26T00:32:26.815Z,99583.41
2023-04-26T00:35:29.429Z,99597.34
2023-04-26T00:38:32.609Z,99596.37
2023-04-26T00:41:35.241Z,99597.25
2023-04-26T00:44:40.151Z,99603.38
2023-04-26T00:47:43.277Z,99601.69
2023-04-26T00:50:47.747Z,99600.09
2023-04-26T00:53:50.485Z,99608.22
2023-04-26T00:56:53.354Z,99602.53
2023-04-26T00:59:57.635Z,99607.63
2023-04-26T01:03:00.411Z,99606.84
2023-04-26T01:06:03.213Z,99611.66
2023-04-26T01:09:11.224Z,99610.97
2023-04-26T01:12:14.559Z,99603.84
2023-04-26T01:15:17.300Z,99615.72
2023-04-26T01:18:20.403Z,99617.47
2023-04-26T01:21:23.481Z,99620.13
2023-04-26T01:24:26.052Z,99617.22
2023-04-26T01:27:28.593Z,99621.28
2023-04-26T01:30:31.160Z,99627.28
2023-04-26T01:33:33.700Z,99626.53
2023-04-26T01:36:36.276Z,99642.03
2023-04-26T01:39:38.844Z,99628.13
2023-04-26T01:42:41.819Z,99637.31
2023-04-26T01:45:48.117Z,99641.69
2023-04-26T01:49:04.112Z,99649.28
2023-04-26T01:52:06.707Z,99646.47
2023-04-26T01:55:09.453Z,99643.78
2023-04-26T01:58:12.041Z,99651.63
2023-04-26T02:01:14.835Z,99646.31
2023-04-26T02:04:20.545Z,99656.97
2023-04-26T02:07:22.825Z,99653.44
2023-04-26T02:10:28.119Z,99658.41
2023-04-26T02:13:31.170Z,99665.50
2023-04-26T02:16:34.152Z,99660.19
2023-04-26T02:19:36.584Z,99665.47
2023-04-26T02:22:39.620Z,99665.37
2023-04-26T02:25:42.575Z,99669.66
2023-04-26T02:28:45.772Z,99663.63
2023-04-26T02:31:49.143Z,99667.13
2023-04-26T02:34:52.221Z,99663.69
2023-04-26T02:37:55.367Z,99672.94
2023-04-26T02:40:59.596Z,99677.72
2023-04-26T02:44:01.899Z,99672.47
2023-04-26T02:47:04.992Z,99672.63
2023-04-26T02:50:08.520Z,99664.66
2023-04-26T02:53:11.669Z,99679.53
2023-04-26T02:56:14.320Z,99677.62
2023-04-26T02:59:17.282Z,99677.81
2023-04-26T03:02:19.780Z,99682.84
2023-04-26T03:05:23.140Z,99692.50
2023-04-26T03:08:25.687Z,99697.56
2023-04-26T03:11:28.812Z,99697.38
2023-04-26T03:14:32.182Z,99713.09
2023-04-26T03:17:35.157Z,99716.47
2023-04-26T03:20:38.161Z,99723.00
2023-04-26T03:23:41.131Z,99716.72
2023-04-26T03:26:44.073Z,99724.09
2023-04-26T03:29:47.015Z,99724.13
2023-04-26T03:32:49.698Z,99737.78
2023-04-26T03:35:52.782Z,99733.41
2023-04-26T03:38:55.149Z,99742.03
2023-04-26T03:41:58.013Z,99740.50
2023-04-26T03:45:00.365Z,99748.56
2023-04-26T03:48:03.328Z,99747.53
2023-04-26T03:51:06.187Z,99745.84
2023-04-26T03:54:09.112Z,99752.91
2023-04-26T03:57:11.425Z,99752.66
2023-04-26T04:00:15.164Z,99750.88
2023-04-26T04:03:18.154Z,99755.19
2023-04-26T04:06:21.855Z,99760.38
2023-04-26T04:09:25.361Z,99771.72
2023-04-26T04:12:29.434Z,99764.87
2023-04-26T04:18:34.879Z,99779.81
2023-04-26T04:21:37.516Z,99774.06
2023-04-26T04:24:41.993Z,99772.41
2023-04-26T04:27:45.255Z,99767.34
2023-04-26T04:30:48.298Z,99756.94
2023-04-26T04:33:50.979Z,99779.44
2023-04-26T04:36:54.348Z,99781.03
2023-04-26T04:39:56.709Z,99789.81
2023-04-26T04:43:00.986Z,99797.72
2023-04-26T04:46:03.656Z,99809.31
2023-04-26T04:49:09.954Z,99819.00
2023-04-26T04:52:12.314Z,99810.59
2023-04-26T04:55:15.190Z,99823.50
2023-04-26T04:58:17.909Z,99821.66
2023-04-26T05:01:21.931Z,99826.25
2023-04-26T05:04:24.669Z,99832.34
2023-04-26T05:07:29.112Z,99840.97
2023-04-26T05:10:31.751Z,99843.44
2023-04-26T05:13:34.867Z,99839.81
2023-04-26T05:16:38.477Z,99840.31
2023-04-26T05:19:41.608Z,99842.22
2023-04-26T05:22:43.989Z,99847.22
2023-04-26T05:25:47.793Z,99847.97
2023-04-26T05:28:50.706Z,99851.41
2023-04-26T05:31:53.763Z,99852.44
2023-04-26T05:34:57.187Z,99857.53
2023-04-26T05:38:00.085Z,99861.25
2023-04-26T05:41:02.890Z,99857.00
2023-04-26T05:44:06.269Z,99859.94
2023-04-26T05:47:09.134Z,99862.50
2023-04-26T05:50:12.062Z,99865.06
2023-04-26T05:53:14.448Z,99868.78
2023-04-26T05:56:17.385Z,99865.06
2023-04-26T05:59:19.657Z,99880.88
2023-04-26T06:02:22.740Z,99882.28
2023-04-26T06:05:26.449Z,99882.69
2023-04-26T06:08:29.234Z,99880.00
2023-04-26T06:11:31.915Z,99880.09
2023-04-26T06:14:34.575Z,99882.72
2023-04-26T06:17:37.395Z,99891.06
2023-04-26T06:20:40.057Z,99893.69
2023-04-26T06:23:42.981Z,99904.91
2023-04-26T06:26:45.961Z,99901.13
2023-04-26T06:29:48.802Z,99903.03
2023-04-26T06:32:52.696Z,99908.72
2023-04-26T06:35:55.753Z,99902.16
2023-04-26T06:38:59.115Z,99901.50
2023-04-26T06:42:02.102Z,99895.41
2023-04-26T06:45:07.762Z,99892.44
2023-04-26T06:48:10.573Z,99895.19
2023-04-26T06:51:13.628Z,99898.19
2023-04-26T06:54:16.391Z,99901.81
2023-04-26T06:57:19.014Z,99901.41
2023-04-26T07:00:21.912Z,99897.66
2023-04-26T07:03:24.852Z,99900.50
2023-04-26T07:06:27.676Z,99901.50
2023-04-26T07:09:30.337Z,99905.84
2023-04-26T07:12:32.972Z,99903.41
2023-04-26T07:15:36.417Z,99899.59
2023-04-26T07:18:40.126Z,99891.12
2023-04-26T07:21:45.037Z,99900.69
2023-04-26T07:24:47.618Z,99898.97
2023-04-26T07:27:51.966Z,99906.09
2023-04-26T07:30:54.529Z,99904.03
2023-04-26T07:33:57.450Z,99905.56
2023-04-26T07:37:00.572Z,99916.63
2023-04-26T07:40:04.985Z,99917.66
2023-04-26T07:43:07.624Z,99920.22
2023-04-26T07:46:10.489Z,99923.03
2023-04-26T07:49:13.614Z,99932.97
2023-04-26T07:52:16.185Z,99932.13
2023-04-26T07:55:18.770Z,99931.31
2023-04-26T07:58:21.654Z,99935.91
2023-04-26T08:01:24.236Z,99934.44
2023-04-26T08:04:33.996Z,99944.25
2023-04-26T08:07:36.660Z,99947.69
2023-04-26T08:10:42.843Z,99944.28
2023-04-26T08:13:45.234Z,99949.56
2023-04-26T08:16:49.452Z,99953.00
2023-04-26T08:19:51.851Z,99950.66
2023-04-26T08:22:58.169Z,99948.16
2023-04-26T08:26:00.583Z,99955.25
2023-04-26T08:29:03.521Z,99951.72
2023-04-26T08:32:05.913Z,99958.75
2023-04-26T08:35:09.981Z,99951.62
2023-04-26T08:38:12.297Z,99950.47
2023-04-26T08:41:15.459Z,99972.81
2023-04-26T08:44:19.550Z,99952.06
2023-04-26T08:47:29.309Z,99944.56
2023-04-26T08:50:33.661Z,99954.66
2023-04-26T08:53:37.240Z,99958.13
2023-04-26T08:56:41.171Z,99970.47
2023-04-26T08:59:44.421Z,99980.75
2023-04-26T09:02:47.986Z,99961.84
2023-04-26T09:05:50.960Z,99972.81
2023-04-26T09:08:54.374Z,99966.50
2023-04-26T09:11:59.727Z,99957.44
2023-04-26T09:15:02.598Z,99969.22
2023-04-26T09:18:18.754Z,99965.50
2023-04-26T09:21:21.284Z,99964.50
2023-04-26T09:24:24.229Z,99965.88
2023-04-26T09:27:37.018Z,99954.94
2023-04-26T09:30:40.204Z,99957.41
2023-04-26T09:34:12.168Z,99968.06
2023-04-26T09:37:15.267Z,99963.03
2023-04-26T09:40:21.508Z,99959.62
2023-04-26T09:43:24.466Z,99967.22
2023-04-26T09:46:26.851Z,99951.22
2023-04-26T09:49:31.820Z,99953.63
2023-04-26T09:52:42.614Z,99950.59
2023-04-26T09:55:45.594Z,99963.94
2023-04-26T09:58:47.813Z,99954.91
2023-04-26T10:01:50.679Z,99958.28
2023-04-26T10:04:54.493Z,99956.84
2023-04-26T10:07:57.305Z,99951.78
2023-04-26T10:11:01.704Z,99945.19
2023-04-26T10:14:04.469Z,99950.53
2023-04-26T10:17:07.353Z,99949.13
2023-04-26T10:20:12.076Z,99943.28
2023-04-26T10:23:22.485Z,99949.75
2023-04-26T10:26:43.767Z,99956.78
2023-04-26T10:29:55.559Z,99953.56
2023-04-26T10:32:58.264Z,99962.72
2023-04-26T10:36:07.995Z,99956.19
2023-04-26T10:39:17.064Z,99956.13
2023-04-26T10:42:26.582Z,99963.00
2023-04-26T10:45:30.339Z,99966.56
2023-04-26T10:48:33.217Z,99958.13
2023-04-26T10:51:35.853Z,99962.16
2023-04-26T10:54:57.996Z,99948.34
2023-04-26T10:58:01.421Z,99941.25
2023-04-26T11:01:08.493Z,99957.38
2023-04-26T11:04:11.841Z,99949.56
2023-04-26T11:07:14.580Z,99955.37
2023-04-26T11:10:23.356Z,99962.47
2023-04-26T11:13:25.972Z,99964.50
2023-04-26T11:16:28.972Z,99971.22
2023-04-26T11:19:32.015Z,99965.13
2023-04-26T11:22:34.876Z,99958.16
2023-04-26T11:25:39.411Z,99954.00
2023-04-26T11:28:44.535Z,99948.13
2023-04-26T11:31:54.255Z,99952.97
2023-04-26T11:35:00.185Z,99961.19
2023-04-26T11:38:04.413Z,99972.28
2023-04-26T11:41:08.020Z,99978.97
2023-04-26T11:44:11.615Z,99982.09
2023-04-26T11:47:17.384Z,99966.47
2023-04-26T11:50:20.912Z,99970.94
2023-04-26T11:53:24.918Z,99971.78
2023-04-26T11:56:27.539Z,99964.59
2023-04-26T11:59:30.901Z,99971.22
2023-04-26T12:02:35.533Z,99951.19
2023-04-26T12:05:38.632Z,99961.44
2023-04-26T12:08:41.472Z,99961.66
2023-04-26T12:11:54.195Z,99967.56
2023-04-26T12:14:56.459Z,99977.69
2023-04-26T12:18:00.930Z,99979.66
2023-04-26T12:21:03.321Z,99973.56
2023-04-26T12:24:06.370Z,99961.06
2023-04-26T12:27:08.633Z,99969.06
2023-04-26T12:30:12.127Z,99978.06
2023-04-26T12:33:17.698Z,99978.97
2023-04-26T12:36:21.180Z,99986.00
2023-04-26T12:39:23.617Z,99980.69
2023-04-26T12:42:26.808Z,99982.41
2023-04-26T12:45:29.272Z,99988.56
2023-04-26T12:48:32.247Z,99988.59
2023-04-26T12:51:34.544Z,99981.62
2023-04-26T12:54:37.584Z,99988.69
2023-04-26T12:57:40.773Z,99986.91
2023-04-26T13:00:44.709Z,99986.88
2023-04-26T13:03:47.405Z,99993.94
2023-04-26T13:06:50.600Z,99987.78
2023-04-26T13:09:52.954Z,99999.22
2023-04-26T13:12:57.881Z,100000.03
2023-04-26T13:16:00.196Z,99999.88
2023-04-26T13:19:03.135Z,100003.47
2023-04-26T13:22:08.243Z,99994.78
2023-04-26T13:25:13.178Z,99993.03
2023-04-26T13:28:15.746Z,100002.72
2023-04-26T13:31:19.312Z,100003.63
2023-04-26T13:34:21.964Z,100003.63
2023-04-26T13:37:26.904Z,100014.22
2023-04-26T13:40:29.206Z,100009.81
2023-04-26T13:43:32.289Z,100014.16
2023-04-26T13:46:34.736Z,100012.41
2023-04-26T13:49:38.408Z,100014.16
2023-04-26T13:52:40.951Z,100012.44
2023-04-26T13:55:43.813Z,100018.59
2023-04-26T13:58:46.148Z,100023.75
2023-04-26T14:01:49.082Z,100037.66
2023-04-26T14:04:52.287Z,100036.69
2023-04-26T14:07:55.374Z,100033.84
2023-04-26T14:10:58.038Z,100040.75
2023-04-26T14:14:00.885Z,100037.22
2023-04-26T14:17:03.706Z,100044.31
2023-04-26T14:20:08.351Z,100040.06
2023-04-26T14:23:11.285Z,100033.97
2023-04-26T14:26:13.870Z,100036.63
2023-04-26T14:29:16.742Z,100034.66
2023-04-26T14:32:19.155Z,100032.84
2023-04-26T14:35:22.009Z,100038.81
2023-04-26T14:38:24.983Z,100049.16
2023-04-26T14:41:27.958Z,100044.63
2023-04-26T14:44:30.467Z,100056.72
2023-04-26T14:47:33.474Z,100041.03
2023-04-26T14:50:36.450Z,100050.59
2023-04-26T14:53:41.993Z,100049.56
2023-04-26T14:56:44.574Z,100050.34
2023-04-26T14:59:48.143Z,100057.94
2023-04-26T15:02:50.808Z,100067.44
2023-04-26T15:05:53.736Z,100056.84
2023-04-26T15:08:56.303Z,100053.59
2023-04-26T15:11:59.145Z,100058.97
2023-04-26T15:15:01.572Z,100055.38
2023-04-26T15:18:04.753Z,100060.63
2023-04-26T15:21:07.153Z,100070.22
2023-04-26T15:24:10.122Z,100070.03
2023-04-26T15:27:12.751Z,100069.03
2023-04-26T15:30:15.693Z,100070.59
2023-04-26T15:33:18.178Z,100070.41
2023-04-26T15:36:22.088Z,100066.84
2023-04-26T15:39:24.375Z,100069.41
2023-04-26T15:42:27.173Z,100079.03
2023-04-26T15:45:29.474Z,100082.00
2023-04-26T15:48:32.377Z,100068.56
2023-04-26T15:51:34.727Z,100069.53
2023-04-26T15:54:37.940Z,100063.16
2023-04-26T15:57:41.648Z,100065.91
2023-04-26T16:00:44.613Z,100072.72
2023-04-26T16:03:47.912Z,100074.47
2023-04-26T16:06:50.625Z,100070.97
2023-04-26T16:09:53.312Z,100073.59
2023-04-26T16:12:56.593Z,100071.03
2023-04-26T16:15:59.825Z,100074.91
2023-04-26T16:19:02.449Z,100080.16
2023-04-26T16:22:05.080Z,100082.75
2023-04-26T16:25:08.733Z,100082.50
2023-04-26T16:28:11.996Z,100087.44
2023-04-26T16:31:14.679Z,100088.53
2023-04-26T16:34:17.326Z,100085.03
2023-04-26T16:37:20.057Z,100095.63
2023-04-26T16:40:23.677Z,100097.13
2023-04-26T16:43:30.280Z,100102.13
2023-04-26T16:46:33.019Z,100099.28
2023-04-26T16:49:35.707Z,100107.00
2023-04-26T16:52:38.650Z,100101.59
2023-04-26T16:55:41.288Z,100118.28
2023-04-26T16:58:44.451Z,100119.69
2023-04-26T17:01:47.374Z,100123.13
2023-04-26T17:04:50.571Z,100121.91
2023-04-26T17:07:53.141Z,100128.75
2023-04-26T17:10:56.217Z,100132.31
2023-04-26T17:13:58.859Z,100134.53
2023-04-26T17:17:01.486Z,100143.97
2023-04-26T17:20:06.578Z,100144.53
2023-04-26T17:23:09.264Z,100135.66
2023-04-26T17:26:11.908Z,100146.34
2023-04-26T17:29:14.505Z,100142.78
2023-04-26T17:32:17.631Z,100150.56
2023-04-26T17:35:20.206Z,100149.75
2023-04-26T17:38:22.827Z,100148.66
2023-04-26T17:41:25.610Z,100153.72
2023-04-26T17:44:28.192Z,100156.31
2023-04-26T17:47:31.368Z,100157.16
2023-04-26T17:50:33.977Z,100158.72
2023-04-26T17:53:36.566Z,100163.69
2023-04-26T17:56:39.155Z,100172.37
2023-04-26T17:59:41.948Z,100181.75
2023-04-26T18:02:44.664Z,100180.97
2023-04-26T18:05:47.644Z,100183.34
2023-04-26T18:08:50.292Z,100186.03
2023-04-26T18:11:52.891Z,100191.34
2023-04-26T18:14:55.859Z,100190.47
2023-04-26T18:17:58.467Z,100193.78
2023-04-26T18:21:01.121Z,100193.00
2023-04-26T18:24:03.834Z,100200.81
2023-04-26T18:27:07.182Z,100207.25
2023-04-26T18:30:10.265Z,100204.50
2023-04-26T18:33:12.947Z,100211.19
2023-04-26T18:36:16.408Z,100213.75
2023-04-26T18:39:19.114Z,100214.03
2023-04-26T18:42:21.676Z,100220.88
2023-04-26T18:45:24.245Z,100228.44
2023-04-26T18:48:26.922Z,100231.91
2023-04-26T18:51:29.673Z,100232.47
2023-04-26T18:54:33.197Z,100238.56
2023-04-26T18:57:36.035Z,100240.94
2023-04-26T19:00:38.745Z,100247.84
2023-04-26T19:03:42.748Z,100254.81
2023-04-26T19:06:45.502Z,100255.69
2023-04-26T19:09:54.143Z,100254.81
2023-04-26T19:12:57.701Z,100247.75
2023-04-26T19:16:00.963Z,100249.09
2023-04-26T19:19:03.603Z,100256.25
2023-04-26T19:22:06.327Z,100250.94
2023-04-26T19:25:09.221Z,100253.25
2023-04-26T19:28:11.795Z,100247.94
2023-04-26T19:31:14.547Z,100254.75
2023-04-26T19:34:17.466Z,100258.09
2023-04-26T19:37:20.363Z,100250.97
2023-04-26T19:40:22.652Z,100252.56
2023-04-26T19:43:25.619Z,100254.31
2023-04-26T19:46:27.913Z,100263.03
2023-04-26T19:49:31.010Z,100267.22
2023-04-26T19:52:33.312Z,100262.91
2023-04-26T19:55:37.002Z,100270.81
2023-04-26T19:58:39.443Z,100272.59
2023-04-26T20:01:42.409Z,100269.28
2023-04-26T20:04:45.131Z,100275.16
2023-04-26T20:07:47.687Z,100273.41
2023-04-26T20:10:50.298Z,100279.38
2023-04-26T20:13:52.880Z,100282.00
2023-04-26T20:16:55.798Z,100287.06
2023-04-26T20:19:58.425Z,100278.13
2023-04-26T20:23:01.110Z,100286.78
2023-04-26T20:26:03.939Z,100291.00
2023-04-26T20:29:06.813Z,100289.28
2023-04-26T20:32:09.491Z,100288.34
2023-04-26T20:35:13.760Z,100290.12
2023-04-26T20:38:16.556Z,100299.72
2023-04-26T20:41:19.124Z,100307.25
2023-04-26T20:44:21.850Z,100298.59
2023-04-26T20:47:24.506Z,100314.19
2023-04-26T20:50:27.223Z,100317.44
2023-04-26T20:53:29.872Z,100312.13
2023-04-26T20:56:32.382Z,100307.59
2023-04-26T20:59:35.080Z,100310.12
2023-04-26T21:02:38.290Z,100311.81
2023-04-26T21:05:41.072Z,100310.03
2023-04-26T21:08:43.737Z,100321.13
2023-04-26T21:11:46.420Z,100322.00
2023-04-26T21:14:48.987Z,100328.84
2023-04-26T21:17:51.875Z,100328.78
2023-04-26T21:20:54.894Z,100334.00
2023-04-26T21:23:57.478Z,100336.44
2023-04-26T21:27:00.108Z,100341.50
2023-04-26T21:30:02.636Z,100344.12
2023-04-26T21:33:05.294Z,100345.81
2023-04-26T21:36:07.949Z,100342.31
2023-04-26T21:39:11.889Z,100347.41
2023-04-26T21:42:14.598Z,100342.94
2023-04-26T21:45:17.227Z,100343.88
2023-04-26T21:48:19.837Z,100350.62
2023-04-26T21:51:22.440Z,100354.19
2023-04-26T21:54:25.082Z,100361.19
2023-04-26T21:57:27.628Z,100354.00
2023-04-26T22:00:30.200Z,100355.59
2023-04-26T22:03:33.203Z,100363.06
2023-04-26T22:06:35.695Z,100356.66
2023-04-26T22:09:38.582Z,100366.09
2023-04-26T22:12:41.179Z,100354.56
2023-04-26T22:15:44.041Z,100359.00
2023-04-26T22:18:46.546Z,100371.22
2023-04-26T22:21:49.680Z,100367.56
2023-04-26T22:24:51.965Z,100365.72
2023-04-26T22:27:54.843Z,100362.22
2023-04-26T22:30:57.171Z,100370.97
2023-04-26T22:34:00.025Z,100381.47
2023-04-26T22:37:17.260Z,100388.34
2023-04-26T22:40:23.824Z,100391.00
2023-04-26T22:43:26.111Z,100391.81
2023-04-26T22:46:29.094Z,100387.56
2023-04-26T22:49:31.468Z,100385.22
2023-04-26T22:52:34.846Z,100384.00
2023-04-26T22:55:37.095Z,100390.88
2023-04-26T22:58:40.070Z,100394.44
2023-04-26T23:01:42.434Z,100393.50
2023-04-26T23:04:46.266Z,100393.31
2023-04-26T23:07:48.605Z,100394.19
2023-04-26T23:10:51.456Z,100396.78
2023-04-26T23:13:54.852Z,100401.25
2023-04-26T23:17:00.972Z,100397.69
2023-04-26T23:20:11.774Z,100408.81
2023-04-26T23:23:14.631Z,100403.53
2023-04-26T23:26:16.980Z,100412.41
2023-04-26T23:29:19.832Z,100416.94
2023-04-26T23:32:22.169Z,100421.09
2023-04-26T23:35:25.120Z,100420.88
2023-04-26T23:38:27.683Z,100419.09
2023-04-26T23:41:30.949Z,100419.34
2023-04-26T23:44:33.460Z,100423.50
2023-04-26T23:47:36.608Z,100420.81
2023-04-26T23:50:38.927Z,100423.16
2023-04-26T23:53:41.847Z,100424.50
2023-04-26T23:56:44.105Z,100419.19
2023-04-26T23:59:47.005Z,100421.81
